sensor_id;sensor_type;location;lat;lon;timestamp;P1;durP1;ratioP1;P2;durP2;ratioP2
48205;SDS011;33995;48.202;16.260;2023-12-14T00:01:14;21.07;;;17.13;;
48205;SDS011;33995;48.202;16.260;2023-12-14T00:03:42;18.73;;;16.63;;
48205;SDS011;33995;48.202;16.260;2023-12-14T00:06:10;20.50;;;17.13;;
48205;SDS011;33995;48.202;16.260;2023-12-14T00:08:38;18.73;;;16.63;;
48205;SDS011;33995;48.202;16.260;2023-12-14T00:11:06;17.90;;;16.00;;
48205;SDS011;33995;48.202;16.260;2023-12-14T00:13:34;17.93;;;15.97;;
48205;SDS011;33995;48.202;16.260;2023-12-14T00:16:01;18.63;;;16.43;;
48205;SDS011;33995;48.202;16.260;2023-12-14T00:18:29;21.07;;;16.60;;
48205;SDS011;33995;48.202;16.260;2023-12-14T00:20:56;18.97;;;16.50;;
48205;SDS011;33995;48.202;16.260;2023-12-14T00:23:23;19.00;;;16.57;;
48205;SDS011;33995;48.202;16.260;2023-12-14T00:25:50;20.77;;;16.47;;
48205;SDS011;33995;48.202;16.260;2023-12-14T00:28:17;18.47;;;15.23;;
48205;SDS011;33995;48.202;16.260;2023-12-14T00:30:44;19.10;;;16.27;;
48205;SDS011;33995;48.202;16.260;2023-12-14T00:33:11;18.00;;;14.90;;
48205;SDS011;33995;48.202;16.260;2023-12-14T00:35:38;18.80;;;16.27;;
48205;SDS011;33995;48.202;16.260;2023-12-14T00:38:05;17.03;;;15.33;;
48205;SDS011;33995;48.202;16.260;2023-12-14T00:40:33;20.33;;;17.67;;
48205;SDS011;33995;48.202;16.260;2023-12-14T00:43:00;19.33;;;16.77;;
48205;SDS011;33995;48.202;16.260;2023-12-14T00:45:26;18.73;;;16.73;;
48205;SDS011;33995;48.202;16.260;2023-12-14T00:47:54;18.87;;;16.70;;
48205;SDS011;33995;48.202;16.260;2023-12-14T00:50:20;19.13;;;17.23;;
48205;SDS011;33995;48.202;16.260;2023-12-14T00:52:47;19.93;;;17.80;;
48205;SDS011;33995;48.202;16.260;2023-12-14T00:55:14;20.47;;;17.43;;
48205;SDS011;33995;48.202;16.260;2023-12-14T00:57:41;19.77;;;17.50;;
48205;SDS011;33995;48.202;16.260;2023-12-14T01:00:09;19.10;;;17.10;;
48205;SDS011;33995;48.202;16.260;2023-12-14T01:02:37;18.90;;;16.90;;
48205;SDS011;33995;48.202;16.260;2023-12-14T01:05:04;20.23;;;17.37;;
48205;SDS011;33995;48.202;16.260;2023-12-14T01:07:31;17.60;;;15.73;;
48205;SDS011;33995;48.202;16.260;2023-12-14T01:09:58;17.13;;;15.33;;
48205;SDS011;33995;48.202;16.260;2023-12-14T01:12:27;17.47;;;15.60;;
48205;SDS011;33995;48.202;16.260;2023-12-14T01:14:54;18.03;;;15.30;;
48205;SDS011;33995;48.202;16.260;2023-12-14T01:17:21;18.13;;;16.17;;
48205;SDS011;33995;48.202;16.260;2023-12-14T01:19:47;17.10;;;15.30;;
48205;SDS011;33995;48.202;16.260;2023-12-14T01:22:15;17.73;;;15.73;;
48205;SDS011;33995;48.202;16.260;2023-12-14T01:24:45;17.30;;;15.50;;
48205;SDS011;33995;48.202;16.260;2023-12-14T01:27:12;18.57;;;16.10;;
48205;SDS011;33995;48.202;16.260;2023-12-14T01:29:40;18.50;;;15.67;;
48205;SDS011;33995;48.202;16.260;2023-12-14T01:32:08;19.30;;;16.40;;
48205;SDS011;33995;48.202;16.260;2023-12-14T01:34:36;16.80;;;15.10;;
48205;SDS011;33995;48.202;16.260;2023-12-14T01:37:03;17.00;;;15.20;;
48205;SDS011;33995;48.202;16.260;2023-12-14T01:39:31;17.03;;;15.23;;
48205;SDS011;33995;48.202;16.260;2023-12-14T01:41:59;17.90;;;15.40;;
48205;SDS011;33995;48.202;16.260;2023-12-14T01:44:25;18.07;;;15.60;;
48205;SDS011;33995;48.202;16.260;2023-12-14T01:46:55;17.67;;;15.67;;
48205;SDS011;33995;48.202;16.260;2023-12-14T01:49:22;18.70;;;15.87;;
48205;SDS011;33995;48.202;16.260;2023-12-14T01:51:49;17.47;;;15.23;;
48205;SDS011;33995;48.202;16.260;2023-12-14T01:54:16;19.03;;;16.17;;
48205;SDS011;33995;48.202;16.260;2023-12-14T01:56:45;17.90;;;16.00;;
48205;SDS011;33995;48.202;16.260;2023-12-14T01:59:12;19.93;;;16.60;;
48205;SDS011;33995;48.202;16.260;2023-12-14T02:01:43;18.50;;;15.90;;
48205;SDS011;33995;48.202;16.260;2023-12-14T02:04:12;17.30;;;15.50;;
48205;SDS011;33995;48.202;16.260;2023-12-14T02:06:41;19.47;;;16.80;;
48205;SDS011;33995;48.202;16.260;2023-12-14T02:09:08;18.73;;;16.27;;
48205;SDS011;33995;48.202;16.260;2023-12-14T02:11:35;19.00;;;16.17;;
48205;SDS011;33995;48.202;16.260;2023-12-14T02:14:06;19.90;;;16.70;;
48205;SDS011;33995;48.202;16.260;2023-12-14T02:16:35;19.67;;;16.93;;
48205;SDS011;33995;48.202;16.260;2023-12-14T02:19:05;17.20;;;15.37;;
48205;SDS011;33995;48.202;16.260;2023-12-14T02:21:32;18.03;;;15.87;;
48205;SDS011;33995;48.202;16.260;2023-12-14T02:23:59;17.63;;;15.37;;
48205;SDS011;33995;48.202;16.260;2023-12-14T02:26:26;18.47;;;16.07;;
48205;SDS011;33995;48.202;16.260;2023-12-14T02:28:53;17.60;;;15.67;;
48205;SDS011;33995;48.202;16.260;2023-12-14T02:31:20;22.07;;;18.30;;
48205;SDS011;33995;48.202;16.260;2023-12-14T02:33:47;19.57;;;17.33;;
48205;SDS011;33995;48.202;16.260;2023-12-14T02:36:14;21.80;;;18.00;;
48205;SDS011;33995;48.202;16.260;2023-12-14T02:38:41;20.13;;;17.27;;
48205;SDS011;33995;48.202;16.260;2023-12-14T02:41:08;20.03;;;16.33;;
48205;SDS011;33995;48.202;16.260;2023-12-14T02:43:37;20.57;;;17.60;;
48205;SDS011;33995;48.202;16.260;2023-12-14T02:46:04;19.77;;;17.07;;
48205;SDS011;33995;48.202;16.260;2023-12-14T02:48:31;20.00;;;17.83;;
48205;SDS011;33995;48.202;16.260;2023-12-14T02:50:59;20.37;;;17.07;;
48205;SDS011;33995;48.202;16.260;2023-12-14T02:53:29;18.73;;;16.40;;
48205;SDS011;33995;48.202;16.260;2023-12-14T02:55:56;18.97;;;16.97;;
48205;SDS011;33995;48.202;16.260;2023-12-14T02:58:28;19.13;;;17.03;;
48205;SDS011;33995;48.202;16.260;2023-12-14T03:00:55;21.27;;;18.10;;
48205;SDS011;33995;48.202;16.260;2023-12-14T03:03:22;19.83;;;17.73;;
48205;SDS011;33995;48.202;16.260;2023-12-14T03:05:49;20.13;;;17.57;;
48205;SDS011;33995;48.202;16.260;2023-12-14T03:08:16;21.30;;;17.93;;
48205;SDS011;33995;48.202;16.260;2023-12-14T03:10:43;20.73;;;18.07;;
48205;SDS011;33995;48.202;16.260;2023-12-14T03:13:10;20.97;;;18.03;;
48205;SDS011;33995;48.202;16.260;2023-12-14T03:15:37;20.20;;;18.07;;
48205;SDS011;33995;48.202;16.260;2023-12-14T03:18:04;20.43;;;17.70;;
48205;SDS011;33995;48.202;16.260;2023-12-14T03:20:32;20.40;;;17.27;;
48205;SDS011;33995;48.202;16.260;2023-12-14T03:22:59;21.77;;;18.47;;
48205;SDS011;33995;48.202;16.260;2023-12-14T03:25:26;20.97;;;17.80;;
48205;SDS011;33995;48.202;16.260;2023-12-14T03:27:54;22.60;;;18.03;;
48205;SDS011;33995;48.202;16.260;2023-12-14T03:30:22;19.20;;;17.10;;
48205;SDS011;33995;48.202;16.260;2023-12-14T03:32:49;20.70;;;17.87;;
48205;SDS011;33995;48.202;16.260;2023-12-14T03:35:17;19.87;;;17.20;;
48205;SDS011;33995;48.202;16.260;2023-12-14T03:37:44;20.50;;;17.13;;
48205;SDS011;33995;48.202;16.260;2023-12-14T03:40:12;21.03;;;17.63;;
48205;SDS011;33995;48.202;16.260;2023-12-14T03:42:40;19.67;;;17.57;;
48205;SDS011;33995;48.202;16.260;2023-12-14T03:45:08;19.77;;;17.63;;
48205;SDS011;33995;48.202;16.260;2023-12-14T03:47:36;22.13;;;17.53;;
48205;SDS011;33995;48.202;16.260;2023-12-14T03:50:04;20.53;;;17.67;;
48205;SDS011;33995;48.202;16.260;2023-12-14T03:52:31;21.73;;;17.63;;
48205;SDS011;33995;48.202;16.260;2023-12-14T03:54:59;21.53;;;18.03;;
48205;SDS011;33995;48.202;16.260;2023-12-14T03:57:26;21.80;;;17.63;;
48205;SDS011;33995;48.202;16.260;2023-12-14T03:59:54;20.27;;;17.53;;
48205;SDS011;33995;48.202;16.260;2023-12-14T04:02:22;19.67;;;17.47;;
48205;SDS011;33995;48.202;16.260;2023-12-14T04:04:50;20.07;;;17.83;;
48205;SDS011;33995;48.202;16.260;2023-12-14T04:07:17;18.67;;;16.67;;
48205;SDS011;33995;48.202;16.260;2023-12-14T04:09:45;20.53;;;17.73;;
48205;SDS011;33995;48.202;16.260;2023-12-14T04:12:12;18.43;;;16.43;;
48205;SDS011;33995;48.202;16.260;2023-12-14T04:14:40;19.03;;;16.83;;
48205;SDS011;33995;48.202;16.260;2023-12-14T04:17:07;20.13;;;17.30;;
48205;SDS011;33995;48.202;16.260;2023-12-14T04:19:37;19.73;;;16.77;;
48205;SDS011;33995;48.202;16.260;2023-12-14T04:22:05;21.00;;;18.23;;
48205;SDS011;33995;48.202;16.260;2023-12-14T04:24:33;19.33;;;17.27;;
48205;SDS011;33995;48.202;16.260;2023-12-14T04:27:00;19.13;;;16.73;;
48205;SDS011;33995;48.202;16.260;2023-12-14T04:29:27;19.10;;;16.97;;
48205;SDS011;33995;48.202;16.260;2023-12-14T04:31:54;19.03;;;16.50;;
48205;SDS011;33995;48.202;16.260;2023-12-14T04:34:21;18.40;;;16.40;;
48205;SDS011;33995;48.202;16.260;2023-12-14T04:36:49;17.33;;;15.53;;
48205;SDS011;33995;48.202;16.260;2023-12-14T04:39:17;18.20;;;15.93;;
48205;SDS011;33995;48.202;16.260;2023-12-14T04:41:44;17.27;;;14.87;;
48205;SDS011;33995;48.202;16.260;2023-12-14T04:44:12;16.47;;;14.60;;
48205;SDS011;33995;48.202;16.260;2023-12-14T04:46:40;15.23;;;13.63;;
48205;SDS011;33995;48.202;16.260;2023-12-14T04:49:08;14.60;;;13.10;;
48205;SDS011;33995;48.202;16.260;2023-12-14T04:51:35;15.37;;;13.77;;
48205;SDS011;33995;48.202;16.260;2023-12-14T04:54:03;15.33;;;13.73;;
48205;SDS011;33995;48.202;16.260;2023-12-14T04:56:30;14.77;;;13.30;;
48205;SDS011;33995;48.202;16.260;2023-12-14T04:58:59;14.33;;;12.93;;
48205;SDS011;33995;48.202;16.260;2023-12-14T05:01:26;17.27;;;13.53;;
48205;SDS011;33995;48.202;16.260;2023-12-14T05:03:55;14.70;;;13.27;;
48205;SDS011;33995;48.202;16.260;2023-12-14T05:06:22;13.87;;;12.50;;
48205;SDS011;33995;48.202;16.260;2023-12-14T05:08:49;15.50;;;14.00;;
48205;SDS011;33995;48.202;16.260;2023-12-14T05:11:17;14.57;;;13.17;;
48205;SDS011;33995;48.202;16.260;2023-12-14T05:13:45;14.47;;;13.03;;
48205;SDS011;33995;48.202;16.260;2023-12-14T05:16:15;13.77;;;12.43;;
48205;SDS011;33995;48.202;16.260;2023-12-14T05:18:42;12.67;;;11.47;;
48205;SDS011;33995;48.202;16.260;2023-12-14T05:21:09;14.40;;;13.00;;
48205;SDS011;33995;48.202;16.260;2023-12-14T05:23:42;13.03;;;11.73;;
48205;SDS011;33995;48.202;16.260;2023-12-14T05:26:09;12.63;;;11.43;;
48205;SDS011;33995;48.202;16.260;2023-12-14T05:28:36;11.57;;;10.53;;
48205;SDS011;33995;48.202;16.260;2023-12-14T05:31:03;11.07;;;10.07;;
48205;SDS011;33995;48.202;16.260;2023-12-14T05:33:30;11.03;;;10.03;;
48205;SDS011;33995;48.202;16.260;2023-12-14T05:36:00;11.00;;;9.90;;
48205;SDS011;33995;48.202;16.260;2023-12-14T05:38:27;9.50;;;8.70;;
48205;SDS011;33995;48.202;16.260;2023-12-14T05:40:54;10.00;;;9.00;;
48205;SDS011;33995;48.202;16.260;2023-12-14T05:43:21;9.10;;;8.23;;
48205;SDS011;33995;48.202;16.260;2023-12-14T05:45:48;9.07;;;8.27;;
48205;SDS011;33995;48.202;16.260;2023-12-14T05:48:15;9.10;;;8.30;;
48205;SDS011;33995;48.202;16.260;2023-12-14T05:50:42;7.13;;;6.53;;
48205;SDS011;33995;48.202;16.260;2023-12-14T05:53:09;7.53;;;6.83;;
48205;SDS011;33995;48.202;16.260;2023-12-14T05:55:36;7.23;;;6.53;;
48205;SDS011;33995;48.202;16.260;2023-12-14T05:58:04;6.20;;;5.70;;
48205;SDS011;33995;48.202;16.260;2023-12-14T06:00:31;5.93;;;5.43;;
48205;SDS011;33995;48.202;16.260;2023-12-14T06:03:01;5.87;;;5.37;;
48205;SDS011;33995;48.202;16.260;2023-12-14T06:05:28;5.40;;;4.90;;
48205;SDS011;33995;48.202;16.260;2023-12-14T06:07:55;4.97;;;4.50;;
48205;SDS011;33995;48.202;16.260;2023-12-14T06:10:22;5.50;;;5.00;;
48205;SDS011;33995;48.202;16.260;2023-12-14T06:12:49;4.90;;;4.50;;
48205;SDS011;33995;48.202;16.260;2023-12-14T06:15:16;4.10;;;3.70;;
48205;SDS011;33995;48.202;16.260;2023-12-14T06:17:44;3.63;;;3.33;;
48205;SDS011;33995;48.202;16.260;2023-12-14T06:20:12;3.30;;;3.00;;
48205;SDS011;33995;48.202;16.260;2023-12-14T06:22:40;3.10;;;2.90;;
48205;SDS011;33995;48.202;16.260;2023-12-14T06:25:07;3.30;;;3.00;;
48205;SDS011;33995;48.202;16.260;2023-12-14T06:27:35;3.77;;;3.47;;
48205;SDS011;33995;48.202;16.260;2023-12-14T06:30:03;3.37;;;3.07;;
48205;SDS011;33995;48.202;16.260;2023-12-14T06:32:30;4.13;;;3.00;;
48205;SDS011;33995;48.202;16.260;2023-12-14T06:34:58;3.20;;;2.90;;
48205;SDS011;33995;48.202;16.260;2023-12-14T06:37:26;3.13;;;2.83;;
48205;SDS011;33995;48.202;16.260;2023-12-14T06:39:53;3.53;;;3.10;;
48205;SDS011;33995;48.202;16.260;2023-12-14T06:42:20;3.37;;;2.80;;
48205;SDS011;33995;48.202;16.260;2023-12-14T06:44:48;3.20;;;3.00;;
48205;SDS011;33995;48.202;16.260;2023-12-14T06:47:15;3.47;;;3.17;;
48205;SDS011;33995;48.202;16.260;2023-12-14T06:49:44;3.40;;;3.10;;
48205;SDS011;33995;48.202;16.260;2023-12-14T06:52:11;3.80;;;3.20;;
48205;SDS011;33995;48.202;16.260;2023-12-14T06:54:39;3.20;;;2.90;;
48205;SDS011;33995;48.202;16.260;2023-12-14T06:57:07;2.93;;;2.70;;
48205;SDS011;33995;48.202;16.260;2023-12-14T06:59:35;2.70;;;2.50;;
48205;SDS011;33995;48.202;16.260;2023-12-14T07:02:02;2.20;;;2.00;;
48205;SDS011;33995;48.202;16.260;2023-12-14T07:04:35;2.30;;;2.10;;
48205;SDS011;33995;48.202;16.260;2023-12-14T07:07:02;2.43;;;2.00;;
48205;SDS011;33995;48.202;16.260;2023-12-14T07:09:30;2.77;;;2.00;;
48205;SDS011;33995;48.202;16.260;2023-12-14T07:11:57;2.43;;;1.83;;
48205;SDS011;33995;48.202;16.260;2023-12-14T07:14:25;2.00;;;1.80;;
48205;SDS011;33995;48.202;16.260;2023-12-14T07:16:52;1.90;;;1.60;;
48205;SDS011;33995;48.202;16.260;2023-12-14T07:19:19;2.33;;;1.70;;
48205;SDS011;33995;48.202;16.260;2023-12-14T07:21:46;1.97;;;1.57;;
48205;SDS011;33995;48.202;16.260;2023-12-14T07:24:13;1.50;;;1.40;;
48205;SDS011;33995;48.202;16.260;2023-12-14T07:26:40;1.90;;;1.60;;
48205;SDS011;33995;48.202;16.260;2023-12-14T07:29:06;1.47;;;1.37;;
48205;SDS011;33995;48.202;16.260;2023-12-14T07:31:34;1.60;;;1.50;;
48205;SDS011;33995;48.202;16.260;2023-12-14T07:34:02;2.23;;;1.83;;
48205;SDS011;33995;48.202;16.260;2023-12-14T07:36:30;1.50;;;1.40;;
48205;SDS011;33995;48.202;16.260;2023-12-14T07:38:58;1.67;;;1.57;;
48205;SDS011;33995;48.202;16.260;2023-12-14T07:41:27;1.60;;;1.50;;
48205;SDS011;33995;48.202;16.260;2023-12-14T07:43:56;1.93;;;1.80;;
48205;SDS011;33995;48.202;16.260;2023-12-14T07:46:23;1.70;;;1.60;;
48205;SDS011;33995;48.202;16.260;2023-12-14T07:48:50;2.53;;;1.80;;
48205;SDS011;33995;48.202;16.260;2023-12-14T07:51:17;1.70;;;1.60;;
48205;SDS011;33995;48.202;16.260;2023-12-14T07:53:44;1.83;;;1.70;;
48205;SDS011;33995;48.202;16.260;2023-12-14T07:56:13;1.70;;;1.60;;
48205;SDS011;33995;48.202;16.260;2023-12-14T07:58:40;1.97;;;1.80;;
48205;SDS011;33995;48.202;16.260;2023-12-14T08:01:07;1.70;;;1.60;;
48205;SDS011;33995;48.202;16.260;2023-12-14T08:03:34;2.40;;;1.73;;
48205;SDS011;33995;48.202;16.260;2023-12-14T08:06:03;1.60;;;1.50;;
48205;SDS011;33995;48.202;16.260;2023-12-14T08:08:30;1.57;;;1.47;;
48205;SDS011;33995;48.202;16.260;2023-12-14T08:10:57;1.70;;;1.60;;
48205;SDS011;33995;48.202;16.260;2023-12-14T08:13:25;1.77;;;1.57;;
48205;SDS011;33995;48.202;16.260;2023-12-14T08:15:52;1.70;;;1.60;;
48205;SDS011;33995;48.202;16.260;2023-12-14T08:18:20;1.70;;;1.60;;
48205;SDS011;33995;48.202;16.260;2023-12-14T08:20:47;1.80;;;1.70;;
48205;SDS011;33995;48.202;16.260;2023-12-14T08:23:15;2.23;;;1.87;;
48205;SDS011;33995;48.202;16.260;2023-12-14T08:25:43;1.70;;;1.60;;
48205;SDS011;33995;48.202;16.260;2023-12-14T08:28:11;1.60;;;1.50;;
48205;SDS011;33995;48.202;16.260;2023-12-14T08:30:38;1.80;;;1.70;;
48205;SDS011;33995;48.202;16.260;2023-12-14T08:33:06;1.70;;;1.60;;
48205;SDS011;33995;48.202;16.260;2023-12-14T08:35:33;2.40;;;1.80;;
48205;SDS011;33995;48.202;16.260;2023-12-14T08:38:00;1.80;;;1.70;;
48205;SDS011;33995;48.202;16.260;2023-12-14T08:40:30;2.63;;;1.90;;
48205;SDS011;33995;48.202;16.260;2023-12-14T08:42:57;1.83;;;1.73;;
48205;SDS011;33995;48.202;16.260;2023-12-14T08:45:27;2.00;;;1.80;;
48205;SDS011;33995;48.202;16.260;2023-12-14T08:47:54;2.57;;;2.03;;
48205;SDS011;33995;48.202;16.260;2023-12-14T08:50:21;2.20;;;2.00;;
48205;SDS011;33995;48.202;16.260;2023-12-14T08:52:48;2.00;;;1.80;;
48205;SDS011;33995;48.202;16.260;2023-12-14T08:55:16;2.40;;;2.20;;
48205;SDS011;33995;48.202;16.260;2023-12-14T08:57:43;1.97;;;1.87;;
48205;SDS011;33995;48.202;16.260;2023-12-14T09:00:11;2.10;;;1.90;;
48205;SDS011;33995;48.202;16.260;2023-12-14T09:02:39;2.07;;;1.87;;
48205;SDS011;33995;48.202;16.260;2023-12-14T09:05:06;2.07;;;1.90;;
48205;SDS011;33995;48.202;16.260;2023-12-14T09:07:35;1.90;;;1.80;;
48205;SDS011;33995;48.202;16.260;2023-12-14T09:10:03;2.20;;;1.77;;
48205;SDS011;33995;48.202;16.260;2023-12-14T09:12:30;1.70;;;1.60;;
48205;SDS011;33995;48.202;16.260;2023-12-14T09:14:58;2.20;;;2.00;;
48205;SDS011;33995;48.202;16.260;2023-12-14T09:17:25;2.43;;;2.23;;
48205;SDS011;33995;48.202;16.260;2023-12-14T09:20:00;2.20;;;2.00;;
48205;SDS011;33995;48.202;16.260;2023-12-14T09:22:31;2.30;;;2.10;;
48205;SDS011;33995;48.202;16.260;2023-12-14T09:24:58;2.10;;;1.90;;
48205;SDS011;33995;48.202;16.260;2023-12-14T09:27:25;1.90;;;1.80;;
48205;SDS011;33995;48.202;16.260;2023-12-14T09:29:53;1.60;;;1.50;;
48205;SDS011;33995;48.202;16.260;2023-12-14T09:32:20;1.90;;;1.70;;
48205;SDS011;33995;48.202;16.260;2023-12-14T09:34:49;2.17;;;1.60;;
48205;SDS011;33995;48.202;16.260;2023-12-14T09:37:18;2.10;;;1.90;;
48205;SDS011;33995;48.202;16.260;2023-12-14T09:39:45;2.00;;;1.80;;
48205;SDS011;33995;48.202;16.260;2023-12-14T09:42:12;2.00;;;1.80;;
48205;SDS011;33995;48.202;16.260;2023-12-14T09:44:46;1.80;;;1.70;;
48205;SDS011;33995;48.202;16.260;2023-12-14T09:47:18;1.77;;;1.67;;
48205;SDS011;33995;48.202;16.260;2023-12-14T09:49:45;1.57;;;1.47;;
48205;SDS011;33995;48.202;16.260;2023-12-14T09:52:14;1.60;;;1.50;;
48205;SDS011;33995;48.202;16.260;2023-12-14T09:54:41;1.60;;;1.50;;
48205;SDS011;33995;48.202;16.260;2023-12-14T09:57:08;1.70;;;1.60;;
48205;SDS011;33995;48.202;16.260;2023-12-14T09:59:37;1.77;;;1.67;;
48205;SDS011;33995;48.202;16.260;2023-12-14T10:02:09;1.87;;;1.70;;
48205;SDS011;33995;48.202;16.260;2023-12-14T10:04:37;1.60;;;1.50;;
48205;SDS011;33995;48.202;16.260;2023-12-14T10:07:05;1.70;;;1.50;;
48205;SDS011;33995;48.202;16.260;2023-12-14T10:09:34;1.90;;;1.80;;
48205;SDS011;33995;48.202;16.260;2023-12-14T10:12:04;1.63;;;1.50;;
48205;SDS011;33995;48.202;16.260;2023-12-14T10:14:36;1.70;;;1.60;;
48205;SDS011;33995;48.202;16.260;2023-12-14T10:17:21;2.30;;;1.80;;
48205;SDS011;33995;48.202;16.260;2023-12-14T10:19:51;1.80;;;1.70;;
48205;SDS011;33995;48.202;16.260;2023-12-14T10:22:18;1.80;;;1.70;;
48205;SDS011;33995;48.202;16.260;2023-12-14T10:24:48;2.30;;;1.50;;
48205;SDS011;33995;48.202;16.260;2023-12-14T10:27:16;1.63;;;1.50;;
48205;SDS011;33995;48.202;16.260;2023-12-14T10:29:44;1.70;;;1.60;;
48205;SDS011;33995;48.202;16.260;2023-12-14T10:32:12;1.70;;;1.60;;
48205;SDS011;33995;48.202;16.260;2023-12-14T10:34:40;1.73;;;1.63;;
48205;SDS011;33995;48.202;16.260;2023-12-14T10:37:08;1.70;;;1.60;;
48205;SDS011;33995;48.202;16.260;2023-12-14T10:39:36;1.57;;;1.37;;
48205;SDS011;33995;48.202;16.260;2023-12-14T10:42:09;1.57;;;1.40;;
48205;SDS011;33995;48.202;16.260;2023-12-14T10:44:46;1.90;;;1.50;;
48205;SDS011;33995;48.202;16.260;2023-12-14T10:47:39;2.23;;;1.43;;
48205;SDS011;33995;48.202;16.260;2023-12-14T10:50:11;1.50;;;1.40;;
48205;SDS011;33995;48.202;16.260;2023-12-14T10:52:44;2.10;;;1.50;;
48205;SDS011;33995;48.202;16.260;2023-12-14T10:55:21;1.73;;;1.20;;
48205;SDS011;33995;48.202;16.260;2023-12-14T10:57:53;1.70;;;1.60;;
48205;SDS011;33995;48.202;16.260;2023-12-14T11:00:20;1.40;;;1.30;;
48205;SDS011;33995;48.202;16.260;2023-12-14T11:02:54;1.57;;;1.47;;
48205;SDS011;33995;48.202;16.260;2023-12-14T11:05:22;2.03;;;1.60;;
48205;SDS011;33995;48.202;16.260;2023-12-14T11:08:00;1.77;;;1.67;;
48205;SDS011;33995;48.202;16.260;2023-12-14T11:10:40;2.90;;;2.70;;
48205;SDS011;33995;48.202;16.260;2023-12-14T11:13:09;3.27;;;2.63;;
48205;SDS011;33995;48.202;16.260;2023-12-14T11:15:39;7.37;;;5.90;;
48205;SDS011;33995;48.202;16.260;2023-12-14T11:23:13;7.30;;;6.60;;
48205;SDS011;33995;48.202;16.260;2023-12-14T11:25:53;6.80;;;6.20;;
48205;SDS011;33995;48.202;16.260;2023-12-14T11:28:26;11.53;;;10.43;;
48205;SDS011;33995;48.202;16.260;2023-12-14T11:30:54;8.13;;;7.30;;
48205;SDS011;33995;48.202;16.260;2023-12-14T11:33:23;4.93;;;4.33;;
48205;SDS011;33995;48.202;16.260;2023-12-14T11:35:51;7.03;;;6.33;;
48205;SDS011;33995;48.202;16.260;2023-12-14T11:38:25;5.20;;;4.73;;
48205;SDS011;33995;48.202;16.260;2023-12-14T11:40:53;7.00;;;6.40;;
48205;SDS011;33995;48.202;16.260;2023-12-14T11:43:21;9.60;;;8.70;;
48205;SDS011;33995;48.202;16.260;2023-12-14T11:45:48;6.90;;;6.30;;
48205;SDS011;33995;48.202;16.260;2023-12-14T11:48:16;6.63;;;6.13;;
48205;SDS011;33995;48.202;16.260;2023-12-14T11:50:43;5.20;;;4.73;;
48205;SDS011;33995;48.202;16.260;2023-12-14T11:53:11;4.73;;;4.33;;
48205;SDS011;33995;48.202;16.260;2023-12-14T11:55:39;4.97;;;4.37;;
48205;SDS011;33995;48.202;16.260;2023-12-14T11:58:07;4.30;;;3.90;;
48205;SDS011;33995;48.202;16.260;2023-12-14T12:00:37;11.70;;;10.60;;
48205;SDS011;33995;48.202;16.260;2023-12-14T12:03:07;3.97;;;3.67;;
48205;SDS011;33995;48.202;16.260;2023-12-14T12:05:51;3.97;;;3.57;;
48205;SDS011;33995;48.202;16.260;2023-12-14T12:08:19;4.13;;;3.50;;
48205;SDS011;33995;48.202;16.260;2023-12-14T12:10:48;3.53;;;3.23;;
48205;SDS011;33995;48.202;16.260;2023-12-14T12:13:16;3.70;;;3.40;;
48205;SDS011;33995;48.202;16.260;2023-12-14T12:15:45;3.43;;;3.00;;
48205;SDS011;33995;48.202;16.260;2023-12-14T12:18:13;3.70;;;3.40;;
48205;SDS011;33995;48.202;16.260;2023-12-14T12:20:42;3.50;;;3.20;;
48205;SDS011;33995;48.202;16.260;2023-12-14T12:23:09;3.47;;;3.00;;
48205;SDS011;33995;48.202;16.260;2023-12-14T12:25:37;3.70;;;3.23;;
48205;SDS011;33995;48.202;16.260;2023-12-14T12:28:04;3.30;;;3.00;;
48205;SDS011;33995;48.202;16.260;2023-12-14T12:30:31;3.40;;;3.10;;
48205;SDS011;33995;48.202;16.260;2023-12-14T12:32:58;3.80;;;3.50;;
48205;SDS011;33995;48.202;16.260;2023-12-14T12:35:25;3.57;;;2.80;;
48205;SDS011;33995;48.202;16.260;2023-12-14T12:37:53;3.60;;;3.30;;
48205;SDS011;33995;48.202;16.260;2023-12-14T12:40:21;3.50;;;3.20;;
48205;SDS011;33995;48.202;16.260;2023-12-14T12:42:49;3.80;;;3.33;;
48205;SDS011;33995;48.202;16.260;2023-12-14T12:45:16;3.93;;;3.27;;
48205;SDS011;33995;48.202;16.260;2023-12-14T12:47:44;4.00;;;3.60;;
48205;SDS011;33995;48.202;16.260;2023-12-14T12:50:12;5.13;;;4.63;;
48205;SDS011;33995;48.202;16.260;2023-12-14T12:52:40;4.60;;;4.20;;
48205;SDS011;33995;48.202;16.260;2023-12-14T12:55:09;5.70;;;5.17;;
48205;SDS011;33995;48.202;16.260;2023-12-14T12:57:36;5.00;;;4.50;;
48205;SDS011;33995;48.202;16.260;2023-12-14T13:00:04;6.67;;;5.03;;
48205;SDS011;33995;48.202;16.260;2023-12-14T13:02:34;4.70;;;4.30;;
48205;SDS011;33995;48.202;16.260;2023-12-14T13:05:01;7.80;;;6.90;;
48205;SDS011;33995;48.202;16.260;2023-12-14T13:07:28;5.70;;;5.20;;
48205;SDS011;33995;48.202;16.260;2023-12-14T13:09:55;4.87;;;4.07;;
48205;SDS011;33995;48.202;16.260;2023-12-14T13:12:22;4.37;;;3.30;;
48205;SDS011;33995;48.202;16.260;2023-12-14T13:14:49;3.40;;;3.10;;
48205;SDS011;33995;48.202;16.260;2023-12-14T13:17:16;3.47;;;2.90;;
48205;SDS011;33995;48.202;16.260;2023-12-14T13:19:44;2.73;;;2.50;;
48205;SDS011;33995;48.202;16.260;2023-12-14T13:22:11;3.43;;;2.83;;
48205;SDS011;33995;48.202;16.260;2023-12-14T13:24:39;2.90;;;2.70;;
48205;SDS011;33995;48.202;16.260;2023-12-14T13:27:06;2.97;;;2.50;;
48205;SDS011;33995;48.202;16.260;2023-12-14T13:29:33;2.67;;;2.47;;
48205;SDS011;33995;48.202;16.260;2023-12-14T13:32:01;4.50;;;4.10;;
48205;SDS011;33995;48.202;16.260;2023-12-14T13:34:28;3.93;;;3.50;;
48205;SDS011;33995;48.202;16.260;2023-12-14T13:36:56;3.53;;;3.10;;
48205;SDS011;33995;48.202;16.260;2023-12-14T13:39:23;4.00;;;3.70;;
48205;SDS011;33995;48.202;16.260;2023-12-14T13:41:50;3.37;;;3.07;;
48205;SDS011;33995;48.202;16.260;2023-12-14T13:44:18;3.70;;;3.13;;
48205;SDS011;33995;48.202;16.260;2023-12-14T13:46:45;3.00;;;2.63;;
48205;SDS011;33995;48.202;16.260;2023-12-14T13:49:12;2.93;;;2.73;;
48205;SDS011;33995;48.202;16.260;2023-12-14T13:51:41;3.73;;;2.87;;
48205;SDS011;33995;48.202;16.260;2023-12-14T13:54:09;3.00;;;2.07;;
48205;SDS011;33995;48.202;16.260;2023-12-14T13:56:36;3.00;;;2.70;;
48205;SDS011;33995;48.202;16.260;2023-12-14T13:59:03;2.63;;;2.43;;
48205;SDS011;33995;48.202;16.260;2023-12-14T14:01:31;3.33;;;3.03;;
48205;SDS011;33995;48.202;16.260;2023-12-14T14:03:59;4.70;;;3.80;;
48205;SDS011;33995;48.202;16.260;2023-12-14T14:06:27;4.20;;;3.80;;
48205;SDS011;33995;48.202;16.260;2023-12-14T14:08:55;3.80;;;3.47;;
48205;SDS011;33995;48.202;16.260;2023-12-14T14:11:22;4.80;;;4.30;;
48205;SDS011;33995;48.202;16.260;2023-12-14T14:13:49;4.73;;;4.33;;
48205;SDS011;33995;48.202;16.260;2023-12-14T14:16:17;5.07;;;4.57;;
48205;SDS011;33995;48.202;16.260;2023-12-14T14:18:45;5.40;;;4.90;;
48205;SDS011;33995;48.202;16.260;2023-12-14T14:21:13;4.40;;;4.00;;
48205;SDS011;33995;48.202;16.260;2023-12-14T14:23:41;4.33;;;3.97;;
48205;SDS011;33995;48.202;16.260;2023-12-14T14:26:09;4.23;;;3.77;;
48205;SDS011;33995;48.202;16.260;2023-12-14T14:28:36;3.30;;;3.00;;
48205;SDS011;33995;48.202;16.260;2023-12-14T14:31:04;3.37;;;2.90;;
48205;SDS011;33995;48.202;16.260;2023-12-14T14:33:32;3.43;;;3.13;;